sensor_id;sensor_type;location;lat;lon;timestamp;pressure;altitude;pressure_sealevel;temperature;humidity
43436;BME280;36399;51.444;-2.018;2023-01-29T00:01:45;102283.22;;;2.85;100.00
43436;BME280;36399;51.444;-2.018;2023-01-29T00:04:11;102273.63;;;2.84;100.00
43436;BME280;36399;51.444;-2.018;2023-01-29T00:06:36;102279.63;;;2.83;100.00
43436;BME280;36399;51.444;-2.018;2023-01-29T00:09:03;102279.72;;;2.84;100.00
43436;BME280;36399;51.444;-2.018;2023-01-29T00:11:28;102284.25;;;2.87;100.00
43436;BME280;36399;51.444;-2.018;2023-01-29T00:13:56;102296.19;;;2.85;100.00
43436;BME280;36399;51.444;-2.018;2023-01-29T00:16:22;102299.00;;;2.88;100.00
43436;BME280;36399;51.444;-2.018;2023-01-29T00:18:48;102294.25;;;2.94;100.00
43436;BME280;36399;51.444;-2.018;2023-01-29T00:21:17;102279.50;;;2.93;100.00
43436;BME280;36399;51.444;-2.018;2023-01-29T00:23:44;102278.69;;;2.94;100.00
43436;BME280;36399;51.444;-2.018;2023-01-29T00:26:10;102274.31;;;2.93;100.00
43436;BME280;36399;51.444;-2.018;2023-01-29T00:28:37;102282.19;;;2.95;100.00
43436;BME280;36399;51.444;-2.018;2023-01-29T00:31:10;102287.50;;;2.96;100.00
43436;BME280;36399;51.444;-2.018;2023-01-29T00:33:36;102276.44;;;2.99;100.00
43436;BME280;36399;51.444;-2.018;2023-01-29T00:36:04;102276.75;;;3.03;100.00
43436;BME280;36399;51.444;-2.018;2023-01-29T00:38:31;102285.13;;;2.99;100.00
43436;BME280;36399;51.444;-2.018;2023-01-29T00:40:57;102278.91;;;2.97;100.00
43436;BME280;36399;51.444;-2.018;2023-01-29T00:43:42;102279.00;;;3.10;100.00
43436;BME280;36399;51.444;-2.018;2023-01-29T00:46:26;102270.09;;;3.19;100.00
43436;BME280;36399;51.444;-2.018;2023-01-29T00:48:52;102266.81;;;3.21;100.00
43436;BME280;36399;51.444;-2.018;2023-01-29T00:51:18;102263.81;;;3.40;100.00
43436;BME280;36399;51.444;-2.018;2023-01-29T00:53:44;102255.44;;;3.44;100.00
43436;BME280;36399;51.444;-2.018;2023-01-29T00:56:10;102253.75;;;3.44;100.00
43436;BME280;36399;51.444;-2.018;2023-01-29T00:58:36;102248.88;;;3.49;100.00
43436;BME280;36399;51.444;-2.018;2023-01-29T01:01:02;102237.81;;;3.52;100.00
43436;BME280;36399;51.444;-2.018;2023-01-29T01:03:29;102240.31;;;3.50;100.00
43436;BME280;36399;51.444;-2.018;2023-01-29T01:06:09;102241.88;;;3.48;100.00
43436;BME280;36399;51.444;-2.018;2023-01-29T01:08:35;102236.50;;;3.45;100.00
43436;BME280;36399;51.444;-2.018;2023-01-29T01:11:20;102217.34;;;3.56;100.00
43436;BME280;36399;51.444;-2.018;2023-01-29T01:13:46;102223.75;;;3.61;100.00
43436;BME280;36399;51.444;-2.018;2023-01-29T01:16:15;102217.56;;;3.59;100.00
43436;BME280;36399;51.444;-2.018;2023-01-29T01:18:42;102214.84;;;3.58;100.00
43436;BME280;36399;51.444;-2.018;2023-01-29T01:21:07;102220.16;;;3.59;100.00
43436;BME280;36399;51.444;-2.018;2023-01-29T01:23:33;102214.66;;;3.55;100.00
43436;BME280;36399;51.444;-2.018;2023-01-29T01:25:59;102214.53;;;3.53;100.00
43436;BME280;36399;51.444;-2.018;2023-01-29T01:28:26;102212.97;;;3.55;100.00
43436;BME280;36399;51.444;-2.018;2023-01-29T01:30:52;102213.75;;;3.54;100.00
43436;BME280;36399;51.444;-2.018;2023-01-29T01:33:18;102202.78;;;3.58;100.00
43436;BME280;36399;51.444;-2.018;2023-01-29T01:35:44;102204.00;;;3.63;100.00
43436;BME280;36399;51.444;-2.018;2023-01-29T01:38:11;102204.75;;;3.49;100.00
43436;BME280;36399;51.444;-2.018;2023-01-29T01:40:43;102196.59;;;3.56;100.00
43436;BME280;36399;51.444;-2.018;2023-01-29T01:43:09;102196.31;;;3.40;100.00
43436;BME280;36399;51.444;-2.018;2023-01-29T01:45:35;102194.75;;;3.42;100.00
43436;BME280;36399;51.444;-2.018;2023-01-29T01:48:12;102196.31;;;3.40;100.00
43436;BME280;36399;51.444;-2.018;2023-01-29T01:50:53;102198.75;;;3.25;100.00
43436;BME280;36399;51.444;-2.018;2023-01-29T01:53:25;102201.84;;;3.20;100.00
43436;BME280;36399;51.444;-2.018;2023-01-29T01:55:59;102194.75;;;3.17;100.00
43436;BME280;36399;51.444;-2.018;2023-01-29T01:58:31;102198.44;;;3.21;100.00
43436;BME280;36399;51.444;-2.018;2023-01-29T02:00:58;102206.47;;;3.12;100.00
43436;BME280;36399;51.444;-2.018;2023-01-29T02:03:26;102209.75;;;3.09;100.00
43436;BME280;36399;51.444;-2.018;2023-01-29T02:06:11;102216.97;;;3.13;100.00
43436;BME280;36399;51.444;-2.018;2023-01-29T02:09:18;102207.94;;;3.08;100.00
43436;BME280;36399;51.444;-2.018;2023-01-29T02:12:06;102213.13;;;3.08;100.00
43436;BME280;36399;51.444;-2.018;2023-01-29T02:14:34;102210.22;;;3.04;100.00
43436;BME280;36399;51.444;-2.018;2023-01-29T02:17:05;102210.53;;;3.08;100.00
43436;BME280;36399;51.444;-2.018;2023-01-29T02:30:58;102201.88;;;2.96;100.00
43436;BME280;36399;51.444;-2.018;2023-01-29T02:33:47;102189.94;;;2.98;100.00
43436;BME280;36399;51.444;-2.018;2023-01-29T02:36:40;102190.13;;;3.01;100.00
43436;BME280;36399;51.444;-2.018;2023-01-29T02:42:01;102191.72;;;2.99;100.00
43436;BME280;36399;51.444;-2.018;2023-01-29T02:45:18;102189.94;;;2.98;100.00
43436;BME280;36399;51.444;-2.018;2023-01-29T02:47:54;102183.16;;;3.00;100.00
43436;BME280;36399;51.444;-2.018;2023-01-29T02:53:13;102166.63;;;3.11;100.00
43436;BME280;36399;51.444;-2.018;2023-01-29T02:58:24;102155.59;;;3.14;100.00
43436;BME280;36399;51.444;-2.018;2023-01-29T03:00:59;102156.25;;;3.11;100.00
43436;BME280;36399;51.444;-2.018;2023-01-29T03:03:39;102145.66;;;3.20;100.00
43436;BME280;36399;51.444;-2.018;2023-01-29T03:06:10;102151.31;;;3.14;100.00
43436;BME280;36399;51.444;-2.018;2023-01-29T03:08:47;102145.88;;;3.11;100.00
43436;BME280;36399;51.444;-2.018;2023-01-29T03:11:16;102145.88;;;3.11;100.00
43436;BME280;36399;51.444;-2.018;2023-01-29T03:14:13;102145.13;;;3.12;100.00
43436;BME280;36399;51.444;-2.018;2023-01-29T03:16:46;102146.91;;;3.13;100.00
43436;BME280;36399;51.444;-2.018;2023-01-29T03:19:18;102138.88;;;3.10;100.00
43436;BME280;36399;51.444;-2.018;2023-01-29T03:21:56;102145.88;;;3.11;100.00
43436;BME280;36399;51.444;-2.018;2023-01-29T03:27:32;102147.03;;;3.03;100.00
43436;BME280;36399;51.444;-2.018;2023-01-29T03:30:19;102134.88;;;3.02;100.00
43436;BME280;36399;51.444;-2.018;2023-01-29T03:33:07;102146.81;;;3.00;100.00
43436;BME280;36399;51.444;-2.018;2023-01-29T03:35:38;102142.75;;;3.04;100.00
43436;BME280;36399;51.444;-2.018;2023-01-29T03:38:08;102140.25;;;3.05;100.00
43436;BME280;36399;51.444;-2.018;2023-01-29T03:40:46;102129.09;;;3.06;100.00
43436;BME280;36399;51.444;-2.018;2023-01-29T03:49:01;102116.78;;;3.15;100.00
43436;BME280;36399;51.444;-2.018;2023-01-29T03:51:55;102115.91;;;3.03;100.00
43436;BME280;36399;51.444;-2.018;2023-01-29T03:57:31;102113.69;;;2.96;100.00
43436;BME280;36399;51.444;-2.018;2023-01-29T04:00:21;102112.88;;;2.97;100.00
43436;BME280;36399;51.444;-2.018;2023-01-29T04:03:05;102118.19;;;2.99;100.00
43436;BME280;36399;51.444;-2.018;2023-01-29T04:05:42;102116.28;;;2.96;100.00
43436;BME280;36399;51.444;-2.018;2023-01-29T04:08:16;102116.88;;;2.92;100.00
43436;BME280;36399;51.444;-2.018;2023-01-29T04:10:46;102120.25;;;2.91;100.00
43436;BME280;36399;51.444;-2.018;2023-01-29T04:13:15;102126.56;;;2.95;100.00
43436;BME280;36399;51.444;-2.018;2023-01-29T04:15:46;102115.50;;;2.97;100.00
43436;BME280;36399;51.444;-2.018;2023-01-29T04:18:14;102121.41;;;3.08;100.00
43436;BME280;36399;51.444;-2.018;2023-01-29T04:20:40;102124.28;;;2.99;100.00
43436;BME280;36399;51.444;-2.018;2023-01-29T04:23:19;102123.91;;;3.06;100.00
43436;BME280;36399;51.444;-2.018;2023-01-29T04:25:49;102123.69;;;3.03;100.00
43436;BME280;36399;51.444;-2.018;2023-01-29T04:28:19;102121.09;;;3.03;100.00
43436;BME280;36399;51.444;-2.018;2023-01-29T04:30:59;102125.06;;;2.98;100.00
43436;BME280;36399;51.444;-2.018;2023-01-29T04:33:36;102117.06;;;2.95;100.00
43436;BME280;36399;51.444;-2.018;2023-01-29T04:38:55;102110.50;;;3.00;100.00
43436;BME280;36399;51.444;-2.018;2023-01-29T04:44:06;102123.47;;;3.00;100.00
43436;BME280;36399;51.444;-2.018;2023-01-29T04:46:49;102117.28;;;2.98;100.00
43436;BME280;36399;51.444;-2.018;2023-01-29T04:49:41;102127.88;;;3.01;100.00
43436;BME280;36399;51.444;-2.018;2023-01-29T04:52:32;102121.00;;;3.02;100.00
43436;BME280;36399;51.444;-2.018;2023-01-29T04:58:11;102120.50;;;3.07;100.00
43436;BME280;36399;51.444;-2.018;2023-01-29T05:00:41;102112.00;;;3.22;100.00
43436;BME280;36399;51.444;-2.018;2023-01-29T05:03:11;102101.22;;;3.15;100.00
43436;BME280;36399;51.444;-2.018;2023-01-29T05:05:44;102093.56;;;3.30;100.00
43436;BME280;36399;51.444;-2.018;2023-01-29T05:08:12;102093.25;;;3.26;100.00
43436;BME280;36399;51.444;-2.018;2023-01-29T05:10:40;102098.81;;;3.19;100.00
43436;BME280;36399;51.444;-2.018;2023-01-29T05:13:10;102092.75;;;3.18;100.00
43436;BME280;36399;51.444;-2.018;2023-01-29T05:15:46;102092.34;;;3.25;100.00
43436;BME280;36399;51.444;-2.018;2023-01-29T05:18:14;102091.97;;;3.32;100.00
43436;BME280;36399;51.444;-2.018;2023-01-29T05:20:41;102094.38;;;3.29;100.00
43436;BME280;36399;51.444;-2.018;2023-01-29T05:23:15;102081.88;;;3.24;100.00
43436;BME280;36399;51.444;-2.018;2023-01-29T05:25:42;102089.56;;;3.22;100.00
43436;BME280;36399;51.444;-2.018;2023-01-29T05:28:08;102082.47;;;3.20;100.00
43436;BME280;36399;51.444;-2.018;2023-01-29T05:30:46;102078.38;;;3.23;100.00
43436;BME280;36399;51.444;-2.018;2023-01-29T05:35:43;102073.41;;;3.26;100.00
43436;BME280;36399;51.444;-2.018;2023-01-29T05:38:10;102064.31;;;3.33;100.00
43436;BME280;36399;51.444;-2.018;2023-01-29T05:40:36;102062.66;;;3.46;100.00
43436;BME280;36399;51.444;-2.018;2023-01-29T05:43:03;102055.75;;;3.47;100.00
43436;BME280;36399;51.444;-2.018;2023-01-29T05:45:31;102057.75;;;3.38;100.00
43436;BME280;36399;51.444;-2.018;2023-01-29T05:47:58;102042.56;;;3.44;100.00
43436;BME280;36399;51.444;-2.018;2023-01-29T05:50:25;102040.97;;;3.46;100.00
43436;BME280;36399;51.444;-2.018;2023-01-29T05:52:59;102041.25;;;3.37;100.00
43436;BME280;36399;51.444;-2.018;2023-01-29T05:55:26;102052.16;;;3.32;100.00
43436;BME280;36399;51.444;-2.018;2023-01-29T05:57:54;102046.34;;;3.36;100.00
43436;BME280;36399;51.444;-2.018;2023-01-29T06:00:20;102044.06;;;3.27;100.00
43436;BME280;36399;51.444;-2.018;2023-01-29T06:02:46;102045.53;;;3.24;100.00
43436;BME280;36399;51.444;-2.018;2023-01-29T06:05:12;102044.94;;;3.28;100.00
43436;BME280;36399;51.444;-2.018;2023-01-29T06:07:39;102043.34;;;3.30;100.00
43436;BME280;36399;51.444;-2.018;2023-01-29T06:10:12;102055.13;;;3.25;100.00
43436;BME280;36399;51.444;-2.018;2023-01-29T06:12:39;102044.75;;;3.25;100.00
43436;BME280;36399;51.444;-2.018;2023-01-29T06:15:05;102046.84;;;3.30;100.00
43436;BME280;36399;51.444;-2.018;2023-01-29T06:17:31;102042.47;;;3.29;100.00
43436;BME280;36399;51.444;-2.018;2023-01-29T06:19:57;102041.44;;;3.27;100.00
43436;BME280;36399;51.444;-2.018;2023-01-29T06:22:23;102052.16;;;3.32;100.00
43436;BME280;36399;51.444;-2.018;2023-01-29T06:24:49;102044.94;;;3.28;100.00
43436;BME280;36399;51.444;-2.018;2023-01-29T06:27:15;102040.56;;;3.27;100.00
43436;BME280;36399;51.444;-2.018;2023-01-29T06:29:41;102040.66;;;3.28;100.00
43436;BME280;36399;51.444;-2.018;2023-01-29T06:32:07;102047.94;;;3.34;100.00
43436;BME280;36399;51.444;-2.018;2023-01-29T06:34:33;102042.16;;;3.38;100.00
43436;BME280;36399;51.444;-2.018;2023-01-29T06:37:02;102045.88;;;3.41;100.00
43436;BME280;36399;51.444;-2.018;2023-01-29T06:39:28;102041.88;;;3.46;100.00
43436;BME280;36399;51.444;-2.018;2023-01-29T06:41:54;102042.88;;;3.62;100.00
43436;BME280;36399;51.444;-2.018;2023-01-29T06:44:20;102035.44;;;3.66;100.00
43436;BME280;36399;51.444;-2.018;2023-01-29T06:46:46;102033.22;;;3.72;100.00
43436;BME280;36399;51.444;-2.018;2023-01-29T06:49:12;102033.81;;;3.68;100.00
43436;BME280;36399;51.444;-2.018;2023-01-29T06:51:38;102028.63;;;3.68;100.00
43436;BME280;36399;51.444;-2.018;2023-01-29T06:54:04;102032.03;;;3.67;100.00
43436;BME280;36399;51.444;-2.018;2023-01-29T06:56:31;102030.03;;;3.76;100.00
43436;BME280;36399;51.444;-2.018;2023-01-29T06:58:56;102028.63;;;3.68;100.00
43436;BME280;36399;51.444;-2.018;2023-01-29T07:01:22;102028.44;;;3.65;100.00
43436;BME280;36399;51.444;-2.018;2023-01-29T07:03:49;102028.84;;;3.71;100.00
43436;BME280;36399;51.444;-2.018;2023-01-29T07:06:16;102024.13;;;3.66;100.00
43436;BME280;36399;51.444;-2.018;2023-01-29T07:08:42;102025.59;;;3.62;100.00
43436;BME280;36399;51.444;-2.018;2023-01-29T07:11:09;102026.34;;;3.73;100.00
43436;BME280;36399;51.444;-2.018;2023-01-29T07:13:35;102026.63;;;3.64;100.00
43436;BME280;36399;51.444;-2.018;2023-01-29T07:16:02;102023.00;;;3.62;100.00
43436;BME280;36399;51.444;-2.018;2023-01-29T07:18:29;102026.84;;;3.67;100.00
43436;BME280;36399;51.444;-2.018;2023-01-29T07:20:55;102030.50;;;3.58;100.00
43436;BME280;36399;51.444;-2.018;2023-01-29T07:23:23;102029.78;;;3.60;100.00
43436;BME280;36399;51.444;-2.018;2023-01-29T07:25:49;102030.78;;;3.62;100.00
43436;BME280;36399;51.444;-2.018;2023-01-29T07:28:16;102028.63;;;3.68;100.00
43436;BME280;36399;51.444;-2.018;2023-01-29T07:30:42;102022.00;;;3.60;100.00
43436;BME280;36399;51.444;-2.018;2023-01-29T07:33:09;102028.69;;;3.57;100.00
43436;BME280;36399;51.444;-2.018;2023-01-29T07:35:40;102020.50;;;3.64;100.00
43436;BME280;36399;51.444;-2.018;2023-01-29T07:38:10;102029.41;;;3.54;100.00
43436;BME280;36399;51.444;-2.018;2023-01-29T07:40:36;102031.19;;;3.55;100.00
43436;BME280;36399;51.444;-2.018;2023-01-29T07:43:04;102027.59;;;3.53;100.00
43436;BME280;36399;51.444;-2.018;2023-01-29T07:45:33;102037.88;;;3.52;100.00
43436;BME280;36399;51.444;-2.018;2023-01-29T07:47:59;102047.28;;;3.49;100.00
43436;BME280;36399;51.444;-2.018;2023-01-29T07:50:25;102048.88;;;3.47;100.00
43436;BME280;36399;51.444;-2.018;2023-01-29T07:52:54;102059.75;;;3.55;100.00
43436;BME280;36399;51.444;-2.018;2023-01-29T07:55:20;102056.16;;;3.53;100.00
43436;BME280;36399;51.444;-2.018;2023-01-29T07:57:46;102063.25;;;3.56;100.00
43436;BME280;36399;51.444;-2.018;2023-01-29T08:00:13;102053.47;;;3.52;100.00
43436;BME280;36399;51.444;-2.018;2023-01-29T08:02:41;102058.75;;;3.53;100.00
43436;BME280;36399;51.444;-2.018;2023-01-29T08:05:07;102064.94;;;3.55;100.00
43436;BME280;36399;51.444;-2.018;2023-01-29T08:07:33;102073.63;;;3.56;100.00
43436;BME280;36399;51.444;-2.018;2023-01-29T08:09:59;102073.16;;;3.61;100.00
43436;BME280;36399;51.444;-2.018;2023-01-29T08:12:25;102076.06;;;3.66;100.00
43436;BME280;36399;51.444;-2.018;2023-01-29T08:14:51;102076.75;;;3.63;100.00
43436;BME280;36399;51.444;-2.018;2023-01-29T08:17:17;102072.34;;;3.62;100.00
43436;BME280;36399;51.444;-2.018;2023-01-29T08:19:43;102082.97;;;3.65;100.00
43436;BME280;36399;51.444;-2.018;2023-01-29T08:22:09;102076.88;;;3.65;100.00
43436;BME280;36399;51.444;-2.018;2023-01-29T08:24:35;102087.25;;;3.65;100.00
43436;BME280;36399;51.444;-2.018;2023-01-29T08:27:01;102089.16;;;3.67;100.00
43436;BME280;36399;51.444;-2.018;2023-01-29T08:29:27;102087.47;;;3.68;100.00
43436;BME280;36399;51.444;-2.018;2023-01-29T08:31:53;102091.38;;;3.74;100.00
43436;BME280;36399;51.444;-2.018;2023-01-29T08:34:19;102083.97;;;3.80;100.00
43436;BME280;36399;51.444;-2.018;2023-01-29T08:36:45;102083.97;;;3.80;100.00
43436;BME280;36399;51.444;-2.018;2023-01-29T08:39:12;102080.38;;;3.92;100.00
43436;BME280;36399;51.444;-2.018;2023-01-29T08:41:38;102082.78;;;3.89;100.00
43436;BME280;36399;51.444;-2.018;2023-01-29T08:44:04;102093.47;;;3.93;100.00
43436;BME280;36399;51.444;-2.018;2023-01-29T08:46:30;102089.47;;;3.98;100.00
43436;BME280;36399;51.444;-2.018;2023-01-29T08:48:56;102083.97;;;3.94;100.00
43436;BME280;36399;51.444;-2.018;2023-01-29T08:51:24;102078.97;;;3.97;100.00
43436;BME280;36399;51.444;-2.018;2023-01-29T08:53:50;102084.56;;;4.03;100.00
43436;BME280;36399;51.444;-2.018;2023-01-29T08:56:16;102086.06;;;3.99;100.00
43436;BME280;36399;51.444;-2.018;2023-01-29T08:58:42;102078.56;;;4.04;100.00
43436;BME280;36399;51.444;-2.018;2023-01-29T09:01:10;102082.16;;;4.06;100.00
43436;BME280;36399;51.444;-2.018;2023-01-29T09:03:36;102079.97;;;4.12;100.00
43436;BME280;36399;51.444;-2.018;2023-01-29T09:06:07;102077.19;;;4.22;100.00
43436;BME280;36399;51.444;-2.018;2023-01-29T09:08:33;102080.56;;;4.21;100.00
43436;BME280;36399;51.444;-2.018;2023-01-29T09:11:00;102077.88;;;4.20;100.00
43436;BME280;36399;51.444;-2.018;2023-01-29T09:13:26;102068.19;;;4.17;100.00
43436;BME280;36399;51.444;-2.018;2023-01-29T09:15:52;102084.19;;;4.23;100.00
43436;BME280;36399;51.444;-2.018;2023-01-29T09:18:18;102085.16;;;4.25;100.00
43436;BME280;36399;51.444;-2.018;2023-01-29T09:20:44;102091.16;;;4.24;100.00
43436;BME280;36399;51.444;-2.018;2023-01-29T09:23:10;102082.97;;;4.31;100.00
43436;BME280;36399;51.444;-2.018;2023-01-29T09:25:36;102078.44;;;4.42;100.00
43436;BME280;36399;51.444;-2.018;2023-01-29T09:28:02;102080.34;;;4.44;100.00
43436;BME280;36399;51.444;-2.018;2023-01-29T09:30:28;102082.50;;;4.52;100.00
43436;BME280;36399;51.444;-2.018;2023-01-29T09:32:54;102078.13;;;4.51;100.00
43436;BME280;36399;51.444;-2.018;2023-01-29T09:35:21;102074.28;;;4.59;100.00
43436;BME280;36399;51.444;-2.018;2023-01-29T09:37:48;102068.91;;;4.56;100.00
43436;BME280;36399;51.444;-2.018;2023-01-29T09:43:13;102071.81;;;4.47;100.00
43436;BME280;36399;51.444;-2.018;2023-01-29T09:45:55;102069.50;;;4.52;100.00
43436;BME280;36399;51.444;-2.018;2023-01-29T09:48:29;102065.72;;;4.47;100.00
43436;BME280;36399;51.444;-2.018;2023-01-29T09:50:59;102066.47;;;4.59;100.00
43436;BME280;36399;51.444;-2.018;2023-01-29T09:53:38;102063.78;;;4.57;100.00
43436;BME280;36399;51.444;-2.018;2023-01-29T09:56:11;102068.72;;;4.53;100.00
43436;BME280;36399;51.444;-2.018;2023-01-29T09:58:40;102056.50;;;4.52;100.00
43436;BME280;36399;51.444;-2.018;2023-01-29T10:01:15;102066.09;;;4.53;100.00
43436;BME280;36399;51.444;-2.018;2023-01-29T10:11:41;102060.84;;;4.66;100.00
43436;BME280;36399;51.444;-2.018;2023-01-29T10:14:34;102062.06;;;4.71;100.00
43436;BME280;36399;51.444;-2.018;2023-01-29T10:20:12;102060.41;;;4.86;100.00
43436;BME280;36399;51.444;-2.018;2023-01-29T10:25:45;102051.97;;;4.90;100.00
43436;BME280;36399;51.444;-2.018;2023-01-29T10:28:29;102049.75;;;4.96;100.00
43436;BME280;36399;51.444;-2.018;2023-01-29T10:31:04;102046.72;;;5.03;100.00
43436;BME280;36399;51.444;-2.018;2023-01-29T10:33:38;102047.38;;;5.29;100.00
43436;BME280;36399;51.444;-2.018;2023-01-29T10:36:08;102043.97;;;5.30;100.00
43436;BME280;36399;51.444;-2.018;2023-01-29T10:38:42;102044.34;;;5.36;100.00
43436;BME280;36399;51.444;-2.018;2023-01-29T10:43:48;102041.09;;;5.40;100.00
43436;BME280;36399;51.444;-2.018;2023-01-29T10:49:03;102025.56;;;5.42;100.00
43436;BME280;36399;51.444;-2.018;2023-01-29T11:01:48;102013.78;;;5.63;100.00
43436;BME280;36399;51.444;-2.018;2023-01-29T11:04:14;102016.47;;;5.64;100.00
43436;BME280;36399;51.444;-2.018;2023-01-29T11:06:40;102013.22;;;5.68;100.00
43436;BME280;36399;51.444;-2.018;2023-01-29T11:12:02;101979.81;;;5.91;100.00
43436;BME280;36399;51.444;-2.018;2023-01-29T11:14:35;101986.44;;;5.86;100.00
43436;BME280;36399;51.444;-2.018;2023-01-29T11:17:03;101977.47;;;5.81;100.00
43436;BME280;36399;51.444;-2.018;2023-01-29T11:19:38;101971.78;;;5.88;100.00
43436;BME280;36399;51.444;-2.018;2023-01-29T11:22:12;101964.03;;;6.04;100.00
43436;BME280;36399;51.444;-2.018;2023-01-29T11:24:38;101959.56;;;6.18;100.00
43436;BME280;36399;51.444;-2.018;2023-01-29T11:27:13;101942.44;;;6.23;100.00
43436;BME280;36399;51.444;-2.018;2023-01-29T11:29:44;101951.97;;;6.22;100.00
43436;BME280;36399;51.444;-2.018;2023-01-29T11:37:38;101932.38;;;6.29;100.00
43436;BME280;36399;51.444;-2.018;2023-01-29T11:42:49;101928.44;;;6.21;100.00
43436;BME280;36399;51.444;-2.018;2023-01-29T11:48:03;101917.25;;;6.23;100.00
43436;BME280;36399;51.444;-2.018;2023-01-29T11:50:31;101919.25;;;6.27;100.00
43436;BME280;36399;51.444;-2.018;2023-01-29T11:52:58;101914.44;;;6.35;100.00
43436;BME280;36399;51.444;-2.018;2023-01-29T11:55:27;101913.22;;;6.45;100.00
43436;BME280;36399;51.444;-2.018;2023-01-29T12:00:31;101903.34;;;6.39;100.00
43436;BME280;36399;51.444;-2.018;2023-01-29T12:03:11;101902.63;;;6.42;100.00
43436;BME280;36399;51.444;-2.018;2023-01-29T12:05:43;101893.66;;;6.37;100.00
43436;BME280;36399;51.444;-2.018;2023-01-29T12:08:18;101893.97;;;6.43;100.00
43436;BME280;36399;51.444;-2.018;2023-01-29T12:10:47;101887.28;;;6.48;100.00
43436;BME280;36399;51.444;-2.018;2023-01-29T12:15:45;101874.94;;;6.61;100.00
43436;BME280;36399;51.444;-2.018;2023-01-29T12:18:31;101869.13;;;6.67;100.00
43436;BME280;36399;51.444;-2.018;2023-01-29T12:21:08;101860.25;;;6.63;100.00
43436;BME280;36399;51.444;-2.018;2023-01-29T12:29:15;101845.34;;;6.95;100.00
43436;BME280;36399;51.444;-2.018;2023-01-29T12:31:58;101829.16;;;6.84;100.00
43436;BME280;36399;51.444;-2.018;2023-01-29T12:35:18;101827.28;;;7.00;100.00
43436;BME280;36399;51.444;-2.018;2023-01-29T12:37:55;101820.56;;;7.05;100.00
43436;BME280;36399;51.444;-2.018;2023-01-29T12:40:46;101810.72;;;7.17;100.00
43436;BME280;36399;51.444;-2.018;2023-01-29T12:43:46;101810.72;;;7.17;100.00
43436;BME280;36399;51.444;-2.018;2023-01-29T12:46:21;101802.34;;;7.24;100.00
43436;BME280;36399;51.444;-2.018;2023-01-29T12:48:49;101797.59;;;7.33;100.00
43436;BME280;36399;51.444;-2.018;2023-01-29T12:51:19;101796.53;;;7.30;100.00
43436;BME280;36399;51.444;-2.018;2023-01-29T12:53:49;101786.38;;;7.36;100.00
43436;BME280;36399;51.444;-2.018;2023-01-29T12:58:49;101773.38;;;7.37;100.00
43436;BME280;36399;51.444;-2.018;2023-01-29T13:01:33;101768.91;;;7.35;100.00
43436;BME280;36399;51.444;-2.018;2023-01-29T13:04:29;101763.84;;;7.38;100.00
43436;BME280;36399;51.444;-2.018;2023-01-29T13:09:56;101753.66;;;7.44;100.00
43436;BME280;36399;51.444;-2.018;2023-01-29T13:12:23;101745.00;;;7.45;100.00
43436;BME280;36399;51.444;-2.018;2023-01-29T13:15:02;101754.44;;;7.60;100.00
43436;BME280;36399;51.444;-2.018;2023-01-29T13:17:42;101747.88;;;7.51;100.00
43436;BME280;36399;51.444;-2.018;2023-01-29T13:22:46;101743.56;;;7.51;100.00
43436;BME280;36399;51.444;-2.018;2023-01-29T13:25:18;101738.13;;;7.47;100.00
43436;BME280;36399;51.444;-2.018;2023-01-29T13:27:45;101741.09;;;7.54;100.00
43436;BME280;36399;51.444;-2.018;2023-01-29T13:30:25;101739.28;;;7.53;100.00
43436;BME280;36399;51.444;-2.018;2023-01-29T13:32:52;101734.22;;;7.56;100.00
43436;BME280;36399;51.444;-2.018;2023-01-29T13:35:20;101724.03;;;7.63;100.00
43436;BME280;36399;51.444;-2.018;2023-01-29T13:37:50;101722.50;;;7.68;100.00
43436;BME280;36399;51.444;-2.018;2023-01-29T13:40:26;101713.84;;;7.69;100.00
43436;BME280;36399;51.444;-2.018;2023-01-29T13:42:54;101728.00;;;7.74;100.00
43436;BME280;36399;51.444;-2.018;2023-01-29T13:45:29;101704.84;;;7.81;100.00
43436;BME280;36399;51.444;-2.018;2023-01-29T13:50:43;101707.72;;;7.87;100.00
43436;BME280;36399;51.444;-2.018;2023-01-29T13:53:20;101694.16;;;7.96;100.00
43436;BME280;36399;51.444;-2.018;2023-01-29T13:55:47;101686.69;;;8.05;100.00
43436;BME280;36399;51.444;-2.018;2023-01-29T14:00:59;101679.63;;;8.03;100.00
43436;BME280;36399;51.444;-2.018;2023-01-29T14:05:59;101658.94;;;8.09;100.00
43436;BME280;36399;51.444;-2.018;2023-01-29T14:13:42;101654.03;;;8.16;100.00
43436;BME280;36399;51.444;-2.018;2023-01-29T14:18:46;101644.88;;;8.47;100.00
43436;BME280;36399;51.444;-2.018;2023-01-29T14:23:44;101638.63;;;8.66;100.00
43436;BME280;36399;51.444;-2.018;2023-01-29T14:26:31;101635.06;;;8.64;100.00
43436;BME280;36399;51.444;-2.018;2023-01-29T14:29:05;101634.06;;;8.60;100.00
43436;BME280;36399;51.444;-2.018;2023-01-29T14:34:02;101627.25;;;8.43;100.00
43436;BME280;36399;51.444;-2.018;2023-01-29T14:36:38;101630.38;;;8.55;100.00
43436;BME280;36399;51.444;-2.018;2023-01-29T14:39:05;101630.91;;;8.46;100.00
43436;BME280;36399;51.444;-2.018;2023-01-29T14:41:33;101626.31;;;8.41;100.00
43436;BME280;36399;51.444;-2.018;2023-01-29T14:47:17;101611.50;;;8.41;100.00
43436;BME280;36399;51.444;-2.018;2023-01-29T14:52:34;101603.22;;;8.32;100.00
43436;BME280;36399;51.444;-2.018;2023-01-29T14:55:04;101592.13;;;8.36;100.00
43436;BME280;36399;51.444;-2.018;2023-01-29T14:57:32;101592.88;;;8.34;100.00
43436;BME280;36399;51.444;-2.018;2023-01-29T15:00:00;101598.81;;;8.31;100.00
43436;BME280;36399;51.444;-2.018;2023-01-29T15:02:43;101585.84;;;8.33;100.00
43436;BME280;36399;51.444;-2.018;2023-01-29T15:05:12;101598.59;;;8.25;100.00
43436;BME280;36399;51.444;-2.018;2023-01-29T15:07:52;101592.56;;;8.28;100.00
43436;BME280;36399;51.444;-2.018;2023-01-29T15:10:25;101576.88;;;8.28;100.00
43436;BME280;36399;51.444;-2.018;2023-01-29T15:12:56;101572.19;;;8.19;100.00
43436;BME280;36399;51.444;-2.018;2023-01-29T15:18:07;101564.63;;;8.27;100.00